sensor_id;sensor_type;location;lat;lon;timestamp;pressure;altitude;pressure_sealevel;temperature
55038;BMP280;40937;53.594;10.034;2023-06-22T00:00:05;102119.34;;;19.97
55038;BMP280;40937;53.594;10.034;2023-06-22T00:02:38;102121.72;;;19.83
55038;BMP280;40937;53.594;10.034;2023-06-22T00:05:05;102119.59;;;19.75
55038;BMP280;40937;53.594;10.034;2023-06-22T00:07:33;102117.47;;;19.98
55038;BMP280;40937;53.594;10.034;2023-06-22T00:10:00;102115.09;;;20.06
55038;BMP280;40937;53.594;10.034;2023-06-22T00:12:28;102119.34;;;20.12
55038;BMP280;40937;53.594;10.034;2023-06-22T00:14:56;102120.16;;;20.13
55038;BMP280;40937;53.594;10.034;2023-06-22T00:17:23;102112.91;;;19.88
55038;BMP280;40937;53.594;10.034;2023-06-22T00:19:50;102113.19;;;19.76
55038;BMP280;40937;53.594;10.034;2023-06-22T00:22:19;102104.06;;;19.92
55038;BMP280;40937;53.594;10.034;2023-06-22T00:24:55;102119.66;;;20.06
55038;BMP280;40937;53.594;10.034;2023-06-22T00:27:22;102117.25;;;20.20
55038;BMP280;40937;53.594;10.034;2023-06-22T00:29:51;102114.00;;;19.92
55038;BMP280;40937;53.594;10.034;2023-06-22T00:32:18;102123.91;;;20.07
55038;BMP280;40937;53.594;10.034;2023-06-22T00:34:47;102125.50;;;19.92
55038;BMP280;40937;53.594;10.034;2023-06-22T00:37:14;102129.25;;;19.76
55038;BMP280;40937;53.594;10.034;2023-06-22T00:39:42;102130.75;;;19.57
55038;BMP280;40937;53.594;10.034;2023-06-22T00:42:09;102128.13;;;19.72
55038;BMP280;40937;53.594;10.034;2023-06-22T00:44:37;102123.38;;;19.89
55038;BMP280;40937;53.594;10.034;2023-06-22T00:47:05;102129.72;;;19.68
55038;BMP280;40937;53.594;10.034;2023-06-22T00:49:33;102122.78;;;19.67
55038;BMP280;40937;53.594;10.034;2023-06-22T00:52:00;102125.19;;;19.79
55038;BMP280;40937;53.594;10.034;2023-06-22T00:54:28;102130.84;;;19.87
55038;BMP280;40937;53.594;10.034;2023-06-22T00:56:55;102137.22;;;19.66
55038;BMP280;40937;53.594;10.034;2023-06-22T00:59:23;102133.75;;;19.65
55038;BMP280;40937;53.594;10.034;2023-06-22T01:01:52;102136.13;;;19.57
55038;BMP280;40937;53.594;10.034;2023-06-22T01:04:24;102138.31;;;19.75
55038;BMP280;40937;53.594;10.034;2023-06-22T01:06:54;102136.63;;;19.59
55038;BMP280;40937;53.594;10.034;2023-06-22T01:09:29;102140.38;;;19.47
55038;BMP280;40937;53.594;10.034;2023-06-22T01:12:01;102137.13;;;19.40
55038;BMP280;40937;53.594;10.034;2023-06-22T01:14:35;102133.38;;;19.31
55038;BMP280;40937;53.594;10.034;2023-06-22T01:17:04;102132.31;;;19.37
55038;BMP280;40937;53.594;10.034;2023-06-22T01:19:39;102135.25;;;19.36
55038;BMP280;40937;53.594;10.034;2023-06-22T01:22:10;102132.84;;;19.39
55038;BMP280;40937;53.594;10.034;2023-06-22T01:24:48;102123.19;;;19.33
55038;BMP280;40937;53.594;10.034;2023-06-22T01:27:28;102125.84;;;19.28
55038;BMP280;40937;53.594;10.034;2023-06-22T01:30:00;102125.31;;;19.36
55038;BMP280;40937;53.594;10.034;2023-06-22T01:32:31;102128.53;;;19.33
55038;BMP280;40937;53.594;10.034;2023-06-22T01:35:01;102119.97;;;19.31
55038;BMP280;40937;53.594;10.034;2023-06-22T01:37:31;102123.69;;;19.25
55038;BMP280;40937;53.594;10.034;2023-06-22T01:39:59;102114.03;;;19.24
55038;BMP280;40937;53.594;10.034;2023-06-22T01:42:27;102116.78;;;19.34
55038;BMP280;40937;53.594;10.034;2023-06-22T01:44:55;102115.63;;;19.20
55038;BMP280;40937;53.594;10.034;2023-06-22T01:47:24;102116.19;;;19.32
55038;BMP280;40937;53.594;10.034;2023-06-22T01:49:53;102117.56;;;19.35
55038;BMP280;40937;53.594;10.034;2023-06-22T01:52:21;102115.09;;;19.23
55038;BMP280;40937;53.594;10.034;2023-06-22T01:54:50;102120.72;;;19.21
55038;BMP280;40937;53.594;10.034;2023-06-22T01:57:18;102126.88;;;19.27
55038;BMP280;40937;53.594;10.034;2023-06-22T01:59:49;102126.44;;;19.45
55038;BMP280;40937;53.594;10.034;2023-06-22T02:02:20;102123.75;;;19.40
55038;BMP280;40937;53.594;10.034;2023-06-22T02:04:54;102110.38;;;19.45
55038;BMP280;40937;53.594;10.034;2023-06-22T02:07:23;102117.81;;;19.33
55038;BMP280;40937;53.594;10.034;2023-06-22T02:09:54;102116.78;;;19.39
55038;BMP280;40937;53.594;10.034;2023-06-22T02:12:25;102123.19;;;19.33
55038;BMP280;40937;53.594;10.034;2023-06-22T02:14:53;102120.19;;;19.24
55038;BMP280;40937;53.594;10.034;2023-06-22T02:17:21;102121.81;;;19.31
55038;BMP280;40937;53.594;10.034;2023-06-22T02:19:48;102121.53;;;19.22
55038;BMP280;40937;53.594;10.034;2023-06-22T02:22:17;102120.56;;;19.43
55038;BMP280;40937;53.594;10.034;2023-06-22T02:24:44;102121.59;;;19.37
55038;BMP280;40937;53.594;10.034;2023-06-22T02:27:11;102117.28;;;19.36
55038;BMP280;40937;53.594;10.034;2023-06-22T02:29:38;102118.09;;;19.37
55038;BMP280;40937;53.594;10.034;2023-06-22T02:32:06;102111.72;;;19.43
55038;BMP280;40937;53.594;10.034;2023-06-22T02:34:33;102108.44;;;19.31
55038;BMP280;40937;53.594;10.034;2023-06-22T02:37:03;102107.91;;;19.34
55038;BMP280;40937;53.594;10.034;2023-06-22T02:39:32;102104.38;;;19.23
55038;BMP280;40937;53.594;10.034;2023-06-22T02:42:00;102096.34;;;19.23
55038;BMP280;40937;53.594;10.034;2023-06-22T02:44:27;102109.22;;;19.21
55038;BMP280;40937;53.594;10.034;2023-06-22T02:46:55;102109.72;;;19.18
55038;BMP280;40937;53.594;10.034;2023-06-22T02:49:23;102106.53;;;19.16
55038;BMP280;40937;53.594;10.034;2023-06-22T02:51:50;102108.63;;;19.14
55038;BMP280;40937;53.594;10.034;2023-06-22T02:54:20;102104.28;;;18.97
55038;BMP280;40937;53.594;10.034;2023-06-22T02:56:51;102098.84;;;18.87
55038;BMP280;40937;53.594;10.034;2023-06-22T02:59:20;102109.53;;;18.87
55038;BMP280;40937;53.594;10.034;2023-06-22T03:01:50;102112.47;;;18.85
55038;BMP280;40937;53.594;10.034;2023-06-22T03:04:22;102109.53;;;18.82
55038;BMP280;40937;53.594;10.034;2023-06-22T03:06:49;102110.13;;;18.89
55038;BMP280;40937;53.594;10.034;2023-06-22T03:09:17;102105.06;;;18.98
55038;BMP280;40937;53.594;10.034;2023-06-22T03:11:44;102110.66;;;18.91
55038;BMP280;40937;53.594;10.034;2023-06-22T03:14:13;102108.75;;;18.86
55038;BMP280;40937;53.594;10.034;2023-06-22T03:16:40;102113.59;;;18.90
55038;BMP280;40937;53.594;10.034;2023-06-22T03:19:08;102116.28;;;18.95
55038;BMP280;40937;53.594;10.034;2023-06-22T03:21:36;102119.31;;;19.03
55038;BMP280;40937;53.594;10.034;2023-06-22T03:24:04;102120.81;;;18.89
55038;BMP280;40937;53.594;10.034;2023-06-22T03:26:31;102117.59;;;18.92
55038;BMP280;40937;53.594;10.034;2023-06-22T03:28:59;102116.75;;;18.81
55038;BMP280;40937;53.594;10.034;2023-06-22T03:31:31;102120.22;;;18.82
55038;BMP280;40937;53.594;10.034;2023-06-22T03:33:59;102123.69;;;18.82
55038;BMP280;40937;53.594;10.034;2023-06-22T03:36:26;102120.25;;;18.87
55038;BMP280;40937;53.594;10.034;2023-06-22T03:38:53;102130.00;;;19.03
55038;BMP280;40937;53.594;10.034;2023-06-22T03:41:21;102132.69;;;19.14
55038;BMP280;40937;53.594;10.034;2023-06-22T03:43:49;102137.44;;;19.01
55038;BMP280;40937;53.594;10.034;2023-06-22T03:46:16;102143.66;;;18.70
55038;BMP280;40937;53.594;10.034;2023-06-22T03:48:45;102146.06;;;18.66
55038;BMP280;40937;53.594;10.034;2023-06-22T03:51:12;102148.50;;;18.73
55038;BMP280;40937;53.594;10.034;2023-06-22T03:53:39;102145.81;;;18.73
55038;BMP280;40937;53.594;10.034;2023-06-22T03:56:06;102152.28;;;18.77
55038;BMP280;40937;53.594;10.034;2023-06-22T03:58:33;102143.16;;;18.78
55038;BMP280;40937;53.594;10.034;2023-06-22T04:01:02;102147.34;;;19.01
55038;BMP280;40937;53.594;10.034;2023-06-22T04:03:29;102145.56;;;19.17
55038;BMP280;40937;53.594;10.034;2023-06-22T04:05:58;102145.00;;;19.10
55038;BMP280;40937;53.594;10.034;2023-06-22T04:08:25;102144.03;;;19.26
55038;BMP280;40937;53.594;10.034;2023-06-22T04:10:52;102160.56;;;19.23
55038;BMP280;40937;53.594;10.034;2023-06-22T04:13:19;102152.09;;;19.31
55038;BMP280;40937;53.594;10.034;2023-06-22T04:15:46;102156.84;;;19.24
55038;BMP280;40937;53.594;10.034;2023-06-22T04:18:13;102147.34;;;19.43
55038;BMP280;40937;53.594;10.034;2023-06-22T04:20:41;102158.56;;;19.50
55038;BMP280;40937;53.594;10.034;2023-06-22T04:23:09;102158.03;;;19.43
55038;BMP280;40937;53.594;10.034;2023-06-22T04:25:36;102156.44;;;19.47
55038;BMP280;40937;53.594;10.034;2023-06-22T04:28:03;102160.19;;;19.52
55038;BMP280;40937;53.594;10.034;2023-06-22T04:30:32;102160.16;;;19.46
55038;BMP280;40937;53.594;10.034;2023-06-22T04:33:00;102170.31;;;19.49
55038;BMP280;40937;53.594;10.034;2023-06-22T04:35:27;102170.31;;;19.49
55038;BMP280;40937;53.594;10.034;2023-06-22T04:37:59;102161.78;;;19.47
55038;BMP280;40937;53.594;10.034;2023-06-22T04:40:27;102163.13;;;19.55
55038;BMP280;40937;53.594;10.034;2023-06-22T04:42:55;102167.69;;;19.55
55038;BMP280;40937;53.594;10.034;2023-06-22T04:45:22;102170.91;;;19.57
55038;BMP280;40937;53.594;10.034;2023-06-22T04:47:49;102171.50;;;19.64
55038;BMP280;40937;53.594;10.034;2023-06-22T04:50:16;102174.72;;;19.66
55038;BMP280;40937;53.594;10.034;2023-06-22T04:52:47;102169.34;;;19.66
55038;BMP280;40937;53.594;10.034;2023-06-22T04:55:14;102165.09;;;19.70
55038;BMP280;40937;53.594;10.034;2023-06-22T04:57:45;102167.78;;;19.75
55038;BMP280;40937;53.594;10.034;2023-06-22T05:00:15;102165.13;;;19.80
55038;BMP280;40937;53.594;10.034;2023-06-22T05:02:43;102169.41;;;19.86
55038;BMP280;40937;53.594;10.034;2023-06-22T05:05:11;102168.38;;;19.92
55038;BMP280;40937;53.594;10.034;2023-06-22T05:07:43;102162.75;;;19.89
55038;BMP280;40937;53.594;10.034;2023-06-22T05:10:11;102169.44;;;19.91
55038;BMP280;40937;53.594;10.034;2023-06-22T05:12:40;102174.00;;;19.96
55038;BMP280;40937;53.594;10.034;2023-06-22T05:15:09;102166.50;;;19.93
55038;BMP280;40937;53.594;10.034;2023-06-22T05:17:37;102171.34;;;20.01
55038;BMP280;40937;53.594;10.034;2023-06-22T05:20:09;102163.06;;;20.03
55038;BMP280;40937;53.594;10.034;2023-06-22T05:22:37;102171.06;;;20.08
55038;BMP280;40937;53.594;10.034;2023-06-22T05:25:07;102165.44;;;20.09
55038;BMP280;40937;53.594;10.034;2023-06-22T05:27:35;102167.34;;;20.14
55038;BMP280;40937;53.594;10.034;2023-06-22T05:30:06;102170.28;;;20.18
55038;BMP280;40937;53.594;10.034;2023-06-22T05:32:35;102168.16;;;20.20
55038;BMP280;40937;53.594;10.034;2023-06-22T05:35:02;102180.22;;;20.27
55038;BMP280;40937;53.594;10.034;2023-06-22T05:37:30;102173.25;;;20.31
55038;BMP280;40937;53.594;10.034;2023-06-22T05:39:57;102177.00;;;20.30
55038;BMP280;40937;53.594;10.034;2023-06-22T05:42:24;102175.91;;;20.26
55038;BMP280;40937;53.594;10.034;2023-06-22T05:44:52;102170.56;;;20.21
55038;BMP280;40937;53.594;10.034;2023-06-22T05:47:20;102172.19;;;20.27
55038;BMP280;40937;53.594;10.034;2023-06-22T05:49:50;102176.75;;;20.32
55038;BMP280;40937;53.594;10.034;2023-06-22T05:52:17;102173.78;;;20.33
55038;BMP280;40937;53.594;10.034;2023-06-22T05:54:44;102174.88;;;20.38
55038;BMP280;40937;53.594;10.034;2023-06-22T05:57:11;102175.66;;;20.48
55038;BMP280;40937;53.594;10.034;2023-06-22T05:59:39;102175.38;;;20.55
55038;BMP280;40937;53.594;10.034;2023-06-22T06:02:06;102163.59;;;20.56
55038;BMP280;40937;53.594;10.034;2023-06-22T06:04:33;102166.28;;;20.56
55038;BMP280;40937;53.594;10.034;2023-06-22T06:07:03;102158.75;;;20.68
55038;BMP280;40937;53.594;10.034;2023-06-22T06:09:30;102158.22;;;20.71
55038;BMP280;40937;53.594;10.034;2023-06-22T06:11:57;102160.63;;;20.73
55038;BMP280;40937;53.594;10.034;2023-06-22T06:14:24;102161.44;;;20.73
55038;BMP280;40937;53.594;10.034;2023-06-22T06:16:52;102160.63;;;20.83
55038;BMP280;40937;53.594;10.034;2023-06-22T06:19:19;102154.72;;;20.86
55038;BMP280;40937;53.594;10.034;2023-06-22T06:21:46;102154.94;;;20.95
55038;BMP280;40937;53.594;10.034;2023-06-22T06:24:15;102160.31;;;20.95
55038;BMP280;40937;53.594;10.034;2023-06-22T06:26:42;102161.13;;;21.00
55038;BMP280;40937;53.594;10.034;2023-06-22T06:29:09;102155.47;;;21.07
55038;BMP280;40937;53.594;10.034;2023-06-22T06:31:36;102159.75;;;21.13
55038;BMP280;40937;53.594;10.034;2023-06-22T06:34:03;102158.66;;;21.14
55038;BMP280;40937;53.594;10.034;2023-06-22T06:36:31;102149.28;;;21.12
55038;BMP280;40937;53.594;10.034;2023-06-22T06:38:58;102156.78;;;21.15
55038;BMP280;40937;53.594;10.034;2023-06-22T06:41:27;102165.63;;;21.20
55038;BMP280;40937;53.594;10.034;2023-06-22T06:43:54;102162.69;;;21.22
55038;BMP280;40937;53.594;10.034;2023-06-22T06:46:21;102156.50;;;21.27
55038;BMP280;40937;53.594;10.034;2023-06-22T06:48:48;102155.66;;;21.31
55038;BMP280;40937;53.594;10.034;2023-06-22T06:51:15;102158.03;;;21.43
55038;BMP280;40937;53.594;10.034;2023-06-22T06:53:42;102152.66;;;21.43
55038;BMP280;40937;53.594;10.034;2023-06-22T06:56:10;102150.50;;;21.45
55038;BMP280;40937;53.594;10.034;2023-06-22T06:58:40;102149.41;;;21.46
55038;BMP280;40937;53.594;10.034;2023-06-22T07:01:08;102147.56;;;21.47
55038;BMP280;40937;53.594;10.034;2023-06-22T07:03:36;102142.91;;;21.52
55038;BMP280;40937;53.594;10.034;2023-06-22T07:06:03;102148.81;;;21.59
55038;BMP280;40937;53.594;10.034;2023-06-22T07:08:30;102148.16;;;21.78
55038;BMP280;40937;53.594;10.034;2023-06-22T07:10:58;102150.03;;;21.82
55038;BMP280;40937;53.594;10.034;2023-06-22T07:13:26;102141.16;;;21.77
55038;BMP280;40937;53.594;10.034;2023-06-22T07:15:55;102140.09;;;21.78
55038;BMP280;40937;53.594;10.034;2023-06-22T07:18:23;102144.69;;;21.72
55038;BMP280;40937;53.594;10.034;2023-06-22T07:20:52;102146.53;;;21.77
55038;BMP280;40937;53.594;10.034;2023-06-22T07:23:19;102152.41;;;21.84
55038;BMP280;40937;53.594;10.034;2023-06-22T07:25:46;102148.34;;;21.92
55038;BMP280;40937;53.594;10.034;2023-06-22T07:28:15;102152.88;;;21.96
55038;BMP280;40937;53.594;10.034;2023-06-22T07:30:42;102148.03;;;21.98
55038;BMP280;40937;53.594;10.034;2023-06-22T07:33:10;102151.78;;;22.02
55038;BMP280;40937;53.594;10.034;2023-06-22T07:35:37;102147.91;;;22.08
55038;BMP280;40937;53.594;10.034;2023-06-22T07:38:05;102147.38;;;22.12
55038;BMP280;40937;53.594;10.034;2023-06-22T07:40:32;102145.75;;;22.16
55038;BMP280;40937;53.594;10.034;2023-06-22T07:43:01;102144.38;;;22.18
55038;BMP280;40937;53.594;10.034;2023-06-22T07:45:29;102146.16;;;22.28
55038;BMP280;40937;53.594;10.034;2023-06-22T07:47:59;102145.03;;;22.34
55038;BMP280;40937;53.594;10.034;2023-06-22T07:50:27;102146.09;;;22.38
55038;BMP280;40937;53.594;10.034;2023-06-22T07:52:55;102149.84;;;22.37
55038;BMP280;40937;53.594;10.034;2023-06-22T07:55:22;102142.84;;;22.41
55038;BMP280;40937;53.594;10.034;2023-06-22T07:57:49;102151.34;;;22.48
55038;BMP280;40937;53.594;10.034;2023-06-22T08:00:21;102149.22;;;22.50
55038;BMP280;40937;53.594;10.034;2023-06-22T08:02:48;102149.72;;;22.52
55038;BMP280;40937;53.594;10.034;2023-06-22T08:05:15;102146.38;;;22.61
55038;BMP280;40937;53.594;10.034;2023-06-22T08:07:44;102143.66;;;22.66
55038;BMP280;40937;53.594;10.034;2023-06-22T08:10:12;102156.19;;;22.76
55038;BMP280;40937;53.594;10.034;2023-06-22T08:12:40;102147.28;;;22.80
55038;BMP280;40937;53.594;10.034;2023-06-22T08:15:08;102144.53;;;22.85
55038;BMP280;40937;53.594;10.034;2023-06-22T08:17:36;102141.25;;;22.88
55038;BMP280;40937;53.594;10.034;2023-06-22T08:20:04;102145.59;;;22.84
55038;BMP280;40937;53.594;10.034;2023-06-22T08:22:35;102143.69;;;22.90
55038;BMP280;40937;53.594;10.034;2023-06-22T08:25:05;102144.41;;;22.95
55038;BMP280;40937;53.594;10.034;2023-06-22T08:27:33;102153.50;;;23.00
55038;BMP280;40937;53.594;10.034;2023-06-22T08:30:01;102136.19;;;23.06
55038;BMP280;40937;53.594;10.034;2023-06-22T08:32:29;102134.53;;;23.10
55038;BMP280;40937;53.594;10.034;2023-06-22T08:34:58;102131.56;;;23.11
55038;BMP280;40937;53.594;10.034;2023-06-22T08:37:25;102123.75;;;23.10
55038;BMP280;40937;53.594;10.034;2023-06-22T08:39:56;102130.16;;;23.14
55038;BMP280;40937;53.594;10.034;2023-06-22T08:42:25;102125.81;;;23.18
55038;BMP280;40937;53.594;10.034;2023-06-22T08:44:52;102135.22;;;23.21
55038;BMP280;40937;53.594;10.034;2023-06-22T08:47:19;102138.13;;;23.24
55038;BMP280;40937;53.594;10.034;2023-06-22T08:49:47;102132.06;;;23.32
55038;BMP280;40937;53.594;10.034;2023-06-22T08:52:14;102126.06;;;23.40
55038;BMP280;40937;53.594;10.034;2023-06-22T08:54:41;102117.38;;;23.44
55038;BMP280;40937;53.594;10.034;2023-06-22T08:57:09;102107.06;;;23.51
55038;BMP280;40937;53.594;10.034;2023-06-22T08:59:38;102106.38;;;23.59
55038;BMP280;40937;53.594;10.034;2023-06-22T09:02:06;102106.72;;;23.71
55038;BMP280;40937;53.594;10.034;2023-06-22T09:04:33;102110.72;;;23.74
55038;BMP280;40937;53.594;10.034;2023-06-22T09:07:01;102111.94;;;23.81
55038;BMP280;40937;53.594;10.034;2023-06-22T09:09:28;102107.00;;;23.89
55038;BMP280;40937;53.594;10.034;2023-06-22T09:11:55;102110.03;;;24.01
55038;BMP280;40937;53.594;10.034;2023-06-22T09:14:23;102101.22;;;23.95
55038;BMP280;40937;53.594;10.034;2023-06-22T09:16:51;102095.25;;;23.98
55038;BMP280;40937;53.594;10.034;2023-06-22T09:19:19;102100.22;;;24.05
55038;BMP280;40937;53.594;10.034;2023-06-22T09:21:46;102089.97;;;24.07
55038;BMP280;40937;53.594;10.034;2023-06-22T09:24:13;102087.19;;;24.12
55038;BMP280;40937;53.594;10.034;2023-06-22T09:26:41;102084.38;;;24.17
55038;BMP280;40937;53.594;10.034;2023-06-22T09:29:08;102089.28;;;24.29
55038;BMP280;40937;53.594;10.034;2023-06-22T09:31:35;102087.38;;;24.29
55038;BMP280;40937;53.594;10.034;2023-06-22T09:34:04;102084.09;;;24.33
55038;BMP280;40937;53.594;10.034;2023-06-22T09:36:31;102080.78;;;24.36
55038;BMP280;40937;53.594;10.034;2023-06-22T09:38:58;102071.50;;;24.42
55038;BMP280;40937;53.594;10.034;2023-06-22T09:41:31;102071.91;;;24.49
55038;BMP280;40937;53.594;10.034;2023-06-22T09:43:59;102064.31;;;24.51
55038;BMP280;40937;53.594;10.034;2023-06-22T09:46:26;102068.53;;;24.57
55038;BMP280;40937;53.594;10.034;2023-06-22T09:48:56;102061.31;;;24.66
55038;BMP280;40937;53.594;10.034;2023-06-22T09:51:25;102056.97;;;24.79
55038;BMP280;40937;53.594;10.034;2023-06-22T09:54:01;102064.28;;;24.79
55038;BMP280;40937;53.594;10.034;2023-06-22T09:56:28;102066.75;;;24.75
55038;BMP280;40937;53.594;10.034;2023-06-22T09:58:56;102067.88;;;24.88
55038;BMP280;40937;53.594;10.034;2023-06-22T10:01:23;102063.84;;;24.99
55038;BMP280;40937;53.594;10.034;2023-06-22T10:03:52;102056.63;;;24.94
55038;BMP280;40937;53.594;10.034;2023-06-22T10:06:22;102058.53;;;24.94
55038;BMP280;40937;53.594;10.034;2023-06-22T10:08:52;102058.63;;;25.03
55038;BMP280;40937;53.594;10.034;2023-06-22T10:11:19;102057.59;;;25.12
55038;BMP280;40937;53.594;10.034;2023-06-22T10:13:48;102056.88;;;25.21
55038;BMP280;40937;53.594;10.034;2023-06-22T10:16:15;102053.53;;;25.24
55038;BMP280;40937;53.594;10.034;2023-06-22T10:18:43;102052.94;;;25.27
55038;BMP280;40937;53.594;10.034;2023-06-22T10:21:10;102049.13;;;25.28
55038;BMP280;40937;53.594;10.034;2023-06-22T10:23:37;102052.97;;;25.35
55038;BMP280;40937;53.594;10.034;2023-06-22T10:26:05;102043.09;;;25.31
55038;BMP280;40937;53.594;10.034;2023-06-22T10:28:33;102050.47;;;25.39
55038;BMP280;40937;53.594;10.034;2023-06-22T10:31:00;102049.09;;;25.50
55038;BMP280;40937;53.594;10.034;2023-06-22T10:33:27;102047.19;;;25.51
55038;BMP280;40937;53.594;10.034;2023-06-22T10:35:55;102033.19;;;25.49
55038;BMP280;40937;53.594;10.034;2023-06-22T10:38:22;102034.97;;;25.53
55038;BMP280;40937;53.594;10.034;2023-06-22T10:40:49;102032.84;;;25.73
55038;BMP280;40937;53.594;10.034;2023-06-22T10:43:20;102032.72;;;25.78
55038;BMP280;40937;53.594;10.034;2023-06-22T10:45:48;102021.28;;;25.81
55038;BMP280;40937;53.594;10.034;2023-06-22T10:48:15;102024.44;;;25.83
55038;BMP280;40937;53.594;10.034;2023-06-22T10:50:42;102024.31;;;25.88
55038;BMP280;40937;53.594;10.034;2023-06-22T10:53:09;102020.06;;;25.96
55038;BMP280;40937;53.594;10.034;2023-06-22T10:55:36;102012.75;;;26.05
55038;BMP280;40937;53.594;10.034;2023-06-22T10:58:03;102014.53;;;26.10
55038;BMP280;40937;53.594;10.034;2023-06-22T11:00:32;102017.38;;;26.04
55038;BMP280;40937;53.594;10.034;2023-06-22T11:02:59;102013.59;;;26.05
55038;BMP280;40937;53.594;10.034;2023-06-22T11:05:26;102000.38;;;26.13
55038;BMP280;40937;53.594;10.034;2023-06-22T11:07:53;102013.63;;;26.23
55038;BMP280;40937;53.594;10.034;2023-06-22T11:10:21;102011.84;;;26.27
55038;BMP280;40937;53.594;10.034;2023-06-22T11:12:48;102008.53;;;26.30
55038;BMP280;40937;53.594;10.034;2023-06-22T11:15:15;102005.84;;;26.30
55038;BMP280;40937;53.594;10.034;2023-06-22T11:17:44;102004.25;;;26.29
55038;BMP280;40937;53.594;10.034;2023-06-22T11:20:11;101993.88;;;26.31
55038;BMP280;40937;53.594;10.034;2023-06-22T11:22:39;101986.56;;;26.40
55038;BMP280;40937;53.594;10.034;2023-06-22T11:25:06;101985.97;;;26.43
55038;BMP280;40937;53.594;10.034;2023-06-22T11:27:34;101978.94;;;26.51
55038;BMP280;40937;53.594;10.034;2023-06-22T11:30:02;101980.53;;;26.61
55038;BMP280;40937;53.594;10.034;2023-06-22T11:32:29;101982.47;;;26.69
55038;BMP280;40937;53.594;10.034;2023-06-22T11:34:58;101976.22;;;26.77
55038;BMP280;40937;53.594;10.034;2023-06-22T11:37:25;101977.50;;;26.80
55038;BMP280;40937;53.594;10.034;2023-06-22T11:39:52;101978.47;;;26.92
55038;BMP280;40937;53.594;10.034;2023-06-22T11:42:20;101985.94;;;26.95
55038;BMP280;40937;53.594;10.034;2023-06-22T11:44:49;101969.50;;;27.01
55038;BMP280;40937;53.594;10.034;2023-06-22T11:47:19;101982.72;;;27.11
55038;BMP280;40937;53.594;10.034;2023-06-22T11:49:46;101968.81;;;27.21
55038;BMP280;40937;53.594;10.034;2023-06-22T11:52:15;101970.72;;;27.29
55038;BMP280;40937;53.594;10.034;2023-06-22T11:54:43;101965.72;;;27.40
55038;BMP280;40937;53.594;10.034;2023-06-22T11:57:11;101977.06;;;27.33
55038;BMP280;40937;53.594;10.034;2023-06-22T11:59:41;101969.38;;;27.44
55038;BMP280;40937;53.594;10.034;2023-06-22T12:02:08;101964.16;;;27.30
55038;BMP280;40937;53.594;10.034;2023-06-22T12:04:35;101968.00;;;27.29
55038;BMP280;40937;53.594;10.034;2023-06-22T12:07:03;101967.00;;;27.34
55038;BMP280;40937;53.594;10.034;2023-06-22T12:09:32;101957.16;;;27.29
55038;BMP280;40937;53.594;10.034;2023-06-22T12:11:59;101952.53;;;27.30
55038;BMP280;40937;53.594;10.034;2023-06-22T12:14:26;101944.53;;;27.33
55038;BMP280;40937;53.594;10.034;2023-06-22T12:16:53;101942.03;;;27.28
55038;BMP280;40937;53.594;10.034;2023-06-22T12:19:20;101932.66;;;27.17
55038;BMP280;40937;53.594;10.034;2023-06-22T12:21:48;101927.25;;;27.17
55038;BMP280;40937;53.594;10.034;2023-06-22T12:24:15;101929.13;;;27.25
55038;BMP280;40937;53.594;10.034;2023-06-22T12:26:43;101932.00;;;27.20
55038;BMP280;40937;53.594;10.034;2023-06-22T12:29:11;101931.06;;;27.16
55038;BMP280;40937;53.594;10.034;2023-06-22T12:31:38;101923.13;;;27.11
55038;BMP280;40937;53.594;10.034;2023-06-22T12:34:05;101923.59;;;27.04
55038;BMP280;40937;53.594;10.034;2023-06-22T12:36:32;101923.28;;;27.06
55038;BMP280;40937;53.594;10.034;2023-06-22T12:38:59;101923.91;;;27.11
55038;BMP280;40937;53.594;10.034;2023-06-22T12:41:27;101927.41;;;27.12
55038;BMP280;40937;53.594;10.034;2023-06-22T12:43:55;101920.03;;;27.21
55038;BMP280;40937;53.594;10.034;2023-06-22T12:46:22;101912.88;;;27.25
55038;BMP280;40937;53.594;10.034;2023-06-22T12:48:49;101917.66;;;27.28
55038;BMP280;40937;53.594;10.034;2023-06-22T12:51:20;101915.25;;;27.27
55038;BMP280;40937;53.594;10.034;2023-06-22T12:53:48;101914.44;;;27.26
55038;BMP280;40937;53.594;10.034;2023-06-22T12:56:15;101904.25;;;27.23
55038;BMP280;40937;53.594;10.034;2023-06-22T12:58:42;101904.91;;;27.20
55038;BMP280;40937;53.594;10.034;2023-06-22T13:01:10;101907.47;;;27.25
55038;BMP280;40937;53.594;10.034;2023-06-22T13:03:38;101894.78;;;27.38
55038;BMP280;40937;53.594;10.034;2023-06-22T13:06:05;101899.78;;;27.57
55038;BMP280;40937;53.594;10.034;2023-06-22T13:08:32;101895.50;;;27.77
55038;BMP280;40937;53.594;10.034;2023-06-22T13:10:59;101886.91;;;27.96
55038;BMP280;40937;53.594;10.034;2023-06-22T13:13:26;101900.97;;;27.98
55038;BMP280;40937;53.594;10.034;2023-06-22T13:15:54;101891.09;;;27.93
55038;BMP280;40937;53.594;10.034;2023-06-22T13:18:22;101892.97;;;27.92
55038;BMP280;40937;53.594;10.034;2023-06-22T13:20:49;101888.50;;;27.97
55038;BMP280;40937;53.594;10.034;2023-06-22T13:23:16;101887.84;;;28.00
55038;BMP280;40937;53.594;10.034;2023-06-22T13:25:43;101888.28;;;28.02
55038;BMP280;40937;53.594;10.034;2023-06-22T13:28:11;101887.56;;;27.92
55038;BMP280;40937;53.594;10.034;2023-06-22T13:30:40;101887.91;;;27.91
55038;BMP280;40937;53.594;10.034;2023-06-22T13:33:09;101882.13;;;27.92
55038;BMP280;40937;53.594;10.034;2023-06-22T13:35:38;101886.81;;;27.92
55038;BMP280;40937;53.594;10.034;2023-06-22T13:38:05;101885.28;;;27.82
55038;BMP280;40937;53.594;10.034;2023-06-22T13:40:32;101884.91;;;27.63
55038;BMP280;40937;53.594;10.034;2023-06-22T13:43:03;101891.97;;;27.55
55038;BMP280;40937;53.594;10.034;2023-06-22T13:45:30;101882.28;;;27.54
55038;BMP280;40937;53.594;10.034;2023-06-22T13:47:57;101880.81;;;27.57